x

Halifax Harbour (44258) Wave Buoy

3:00pm - Sat 27th Dec 2014 All times are EST. -5 hours from GMT.

  • Sig Wave height 4.3ft
  • Peak Period 8s
  • Wind
    18mph, 25mph gusts
  • Air Temp 43°f
  • Sea Pressure 1015mb
  • Halifax Harbour
  • Halifax Harbour

More Historic Weather Station data

Upgrade to MSW Pro to gain access to the past 30 days of data for over 8000 Wavebouys and Weather Stations around the globe.

Join Pro

Comparision Forecast

View Surf forecast
   
Sat 12/27 3:00pm 4.5ft 8s 18 25 mph 1015mb 43f
2:00pm 4.5ft 9s 22 27 mph 1014.4mb 44f
1:00pm 4.5ft 8s 18 27 mph 1014mb 44f
12:00pm 5ft 9s 18 22 mph 1014.1mb 44f
11:00am 4.5ft 10s 13 18 mph 1014.4mb 42f
10:00am 5ft 9s 20 25 mph 1015.3mb 41f
9:00am 5ft 9s 16 20 mph 1015.7mb 41f
8:00am 5ft 9s 16 18 mph 1015.3mb 41f
7:00am 5ft 9s 16 20 mph 1014.7mb 40f
6:00am 5ft 9s 16 18 mph 1014.4mb 40f
5:00am 5ft 9s 16 18 mph 1014.1mb 40f
4:00am 5ft 9s 16 18 mph 1013.9mb 39f
3:00am 5ft 10s 13 16 mph 1013.8mb 39f
2:00am 5ft 10s 13 20 mph 1014.1mb 39f
1:00am 5.5ft 10s 16 18 mph 1013.4mb 39f
12:00am 6ft 10s 16 18 mph 1013.3mb 40f
Fri 12/26 11:00pm 5.5ft 8s 16 20 mph 1013.6mb 41f
10:00pm 5.5ft 10s 13 18 mph 1013.8mb 41f
9:00pm 6ft 10s 18 20 mph 1013mb 41f
8:00pm 6ft 10s 18 22 mph 1013.4mb 42f
7:00pm 6.5ft 9s 18 22 mph 1013.6mb 42f
6:00pm 7ft 10s 20 25 mph 1012.9mb 43f
5:00pm  -   -  18
mph
1012.5mb 43f
4:00pm 7ft 10s 20 25 mph 1011.9mb 44f
3:00pm  -   -  22
mph
1011mb 45f
2:00pm 6.5ft 10s 22 29 mph 1009.9mb 45f
1:00pm 7ft 10s 25 29 mph 1009.2mb 45f
12:00pm  -   -  27
mph
1009.2mb 45f
11:00am 7ft 9s 22 31 mph 1009.5mb 44f
9:00am 7ft 9s 22 27 mph 1010.1mb 42f
8:00am 7.5ft 10s 16
mph
1010mb 41f
7:00am 7.5ft 9s 16 22 mph 1009.1mb 41f
6:00am 7.5ft 9s 20 27 mph 1008.5mb 41f
5:00am 8ft 8s 20 27 mph 1007.7mb 42f
4:00am 8ft 9s 16 20 mph 1007.1mb 42f
3:00am 8ft 9s 20 27 mph 1006.1mb 43f
2:00am 8ft 9s 18 22 mph 1005.6mb 43f
1:00am 8.5ft 8s 18 22 mph 1004.4mb 43f
12:00am 8.5ft 9s 16 20 mph 1003.4mb 43f
Thu 12/25 11:00pm 9ft 8s 16 18 mph 1002.9mb 43f
10:00pm 9ft 8s 13
mph
1002.4mb 43f
9:00pm 9ft 9s 16 18 mph 1001.5mb 45f
8:00pm 9ft 8s 18 20 mph 1000.2mb 44f
7:00pm 9ft 8s 22 27 mph 998.8mb 45f
6:00pm 9ft 8s 25 29 mph 998mb 45f
5:00pm 9.5ft 10s 22 27 mph 998.2mb 46f
4:00pm 9.5ft 9s 25 27 mph 998mb 46f
3:00pm 9.5ft 8s 18 22 mph 997.4mb 46f
2:00pm 9.5ft 8s 25 29 mph 998.3mb 49f
1:00pm 10ft 8s 27 31 mph 997.1mb 50f
12:00pm 9ft 9s 27 31 mph 998.4mb 50f
11:00am 9.5ft 8s 22 27 mph 1000.5mb 49f
10:00am 10ft 9s 22 27 mph 1002.7mb 49f
9:00am 10ft 8s 22 27 mph 1003.6mb 49f
8:00am 9.5ft 8s 25 29 mph 1004mb 51f
7:00am 9ft 8s 22 25 mph 1005.4mb 48f
6:00am 9ft 8s 22 25 mph 1006.7mb 48f
5:00am 9ft 7s 22 25 mph 1008.1mb 48f
4:00am 8ft 8s 25 31 mph 1007.8mb 48f
3:00am 8ft 7s 25 29 mph 1008.6mb 48f
2:00am 8ft 7s 27 31 mph 1009.4mb 47f
1:00am 7ft 8s 22 25 mph 1010.9mb 47f
12:00am 6.5ft 8s 20 25 mph 1011.8mb 46f
Wed 12/24 11:00pm 6ft 7s 22 27 mph 1012.9mb 46f
10:00pm 6ft 8s 22 25 mph 1014mb 46f
9:00pm 5.5ft 7s 20 22 mph 1015mb 46f
8:00pm 5.5ft 8s 16 18 mph 1016.1mb 45f
7:00pm 6ft 7s 16 18 mph 1017.1mb 45f
6:00pm  -   -  16
mph
1017.9mb 45f
5:00pm 6ft 7s 13 16 mph 1018.2mb 44f
4:00pm 5.5ft 7s 11 13 mph 1018.8mb 44f
3:00pm 6ft 6s 9 13 mph 1019.4mb 43f
2:00pm 6ft 6s 16 18 mph 1019.6mb 43f
1:00pm 6.5ft 6s 18 22 mph 1019.7mb 42f
12:00pm  -   -  22
mph
1020.2mb 42f
11:00am  -   -  25
mph
- 41f
10:00am  -   -  27
mph
1022.5mb 40f
9:00am 8ft 7s 27 31 mph 1023.5mb 40f
7:00am  -   -  27
mph
1023.3mb 39f
6:00am 7ft 7s 27 31 mph 1023.1mb 39f
5:00am 6.5ft 6s 22 29 mph 1024.2mb 38f
4:00am 6ft 7s 25 31 mph 1024.6mb 39f
3:00am 6ft 6s 22
mph
1025.2mb 39f
2:00am 5.5ft 6s 22 27 mph 1025mb 38f
1:00am 5ft 11s 22 27 mph 1025.2mb 37f
12:00am 4.5ft 10s 22 25 mph 1026.2mb 37f
Tue 12/23 11:00pm 4.5ft 11s 20 22 mph 1026.7mb 37f
10:00pm  -   -  18
mph
- -